Time;durP1;ratioP1;P1;durP2;ratioP2;P2;SDS_P1;SDS_P2;PMS_P1;PMS_P2;Temp;Humidity;BMP_temperature;BMP_pressure;BME280_temperature;BME280_humidity;BME280_pressure;Samples;Min_cycle;Max_cycle;Signal;HPM_P1;HPM_P2
2023/09/24 00:01:35;;;;;;;12.48;5.28;;;;;;;10.44;100.00;102229.41;4893632;29;20033;-71
2023/09/24 00:04:00;;;;;;;9.13;4.55;;;;;;;10.43;100.00;102239.25;4893466;29;20035;-71
2023/09/24 00:06:26;;;;;;;8.70;4.78;;;;;;;10.41;100.00;102238.56;4876932;29;20036;-71
2023/09/24 00:08:51;;;;;;;9.00;4.15;;;;;;;10.34;100.00;102234.03;4876989;29;20146;-71
2023/09/24 00:11:17;;;;;;;10.38;4.82;;;;;;;10.34;100.00;102228.69;4893608;29;20119;-71
2023/09/24 00:13:42;;;;;;;9.05;5.00;;;;;;;10.32;100.00;102234.16;4893596;29;20416;-71
2023/09/24 00:16:09;;;;;;;11.65;5.57;;;;;;;10.27;100.00;102239.13;4893968;29;20476;-71
2023/09/24 00:18:35;;;;;;;9.10;4.20;;;;;;;10.26;100.00;102246.28;4896863;29;20437;-71
2023/09/24 00:21:01;;;;;;;11.63;5.88;;;;;;;10.23;100.00;102243.13;4897137;29;20177;-71
2023/09/24 00:23:28;;;;;;;10.60;4.60;;;;;;;10.26;100.00;102256.97;4897141;29;20041;-72
2023/09/24 00:25:57;;;;;;;7.10;4.50;;;;;;;10.26;100.00;102248.97;4897078;29;20051;-71
2023/09/24 00:28:23;;;;;;;13.98;6.00;;;;;;;10.27;100.00;102258.69;4896930;29;20056;-71
2023/09/24 00:30:50;;;;;;;10.02;5.63;;;;;;;10.26;100.00;102254.28;4896807;29;20032;-71
2023/09/24 00:33:16;;;;;;;6.63;4.43;;;;;;;10.22;100.00;102249.47;4896945;29;20037;-71
2023/09/24 00:35:41;;;;;;;7.97;5.15;;;;;;;10.24;100.00;102250.97;4896857;29;20039;-71
2023/09/24 00:38:08;;;;;;;7.75;4.40;;;;;;;10.23;100.00;102243.13;4895560;29;20036;-71
2023/09/24 00:40:33;;;;;;;10.90;5.05;;;;;;;10.22;100.00;102241.47;4879965;29;20041;-71
2023/09/24 00:42:58;;;;;;;7.13;4.88;;;;;;;10.21;100.00;102245.09;4896750;29;20033;-71
2023/09/24 00:45:28;;;;;;;7.38;4.40;;;;;;;10.16;100.00;102248.25;4896619;29;20032;-71
2023/09/24 00:47:56;;;;;;;8.45;4.55;;;;;;;10.05;100.00;102249.34;4896519;29;20070;-72
2023/09/24 00:50:24;;;;;;;8.80;5.40;;;;;;;10.04;100.00;102250.38;4896632;29;20569;-71
2023/09/24 00:52:54;;;;;;;8.20;4.63;;;;;;;10.01;100.00;102247.19;4896674;29;20024;-71
2023/09/24 00:55:19;;;;;;;10.23;4.90;;;;;;;10.06;100.00;102251.03;4896439;29;20476;-71
2023/09/24 00:57:49;;;;;;;11.40;4.90;;;;;;;10.00;100.00;102246.31;4896399;29;20132;-71
2023/09/24 01:00:17;;;;;;;10.00;5.03;;;;;;;10.07;100.00;102257.22;4896323;29;20032;-71
2023/09/24 01:02:44;;;;;;;8.18;4.53;;;;;;;10.06;100.00;102269.72;4896551;29;20428;-71
2023/09/24 01:05:10;;;;;;;13.90;5.88;;;;;;;10.05;100.00;102268.00;4896420;29;20139;-71
2023/09/24 01:07:36;;;;;;;12.00;4.97;;;;;;;10.03;100.00;102262.03;4894839;29;20131;-71
2023/09/24 01:10:02;;;;;;;11.27;5.28;;;;;;;10.02;100.00;102259.50;4896336;29;20037;-71
2023/09/24 01:12:29;;;;;;;9.02;5.03;;;;;;;10.00;100.00;102259.66;4879265;29;20057;-71
2023/09/24 01:14:54;;;;;;;9.23;5.10;;;;;;;9.98;100.00;102255.47;4896197;29;20036;-71
2023/09/24 01:17:20;;;;;;;10.70;5.50;;;;;;;9.85;100.00;102245.25;4896240;29;20032;-71
2023/09/24 01:19:46;;;;;;;13.32;5.45;;;;;;;9.93;100.00;102253.31;4896057;29;20528;-71
2023/09/24 01:22:11;;;;;;;11.15;5.45;;;;;;;9.93;100.00;102257.78;4896764;29;20033;-71
2023/09/24 01:24:37;;;;;;;9.73;5.25;;;;;;;9.87;100.00;102260.06;4896273;29;20047;-71
2023/09/24 01:27:02;;;;;;;12.73;5.80;;;;;;;9.87;100.00;102267.25;4895932;29;20037;-71
2023/09/24 01:29:27;;;;;;;14.52;5.30;;;;;;;9.84;100.00;102268.38;4878842;29;20092;-71
2023/09/24 01:31:53;;;;;;;11.50;6.10;;;;;;;9.86;100.00;102268.25;4895897;29;20131;-71
2023/09/24 01:34:19;;;;;;;7.53;5.00;;;;;;;9.80;100.00;102264.38;4879034;29;20068;-71
2023/09/24 01:36:45;;;;;;;10.38;5.45;;;;;;;9.83;100.00;102266.72;4895830;29;20496;-71
2023/09/24 01:39:15;;;;;;;9.73;5.03;;;;;;;9.79;100.00;102248.53;4895746;29;20081;-71
2023/09/24 01:41:41;;;;;;;10.10;5.10;;;;;;;9.81;100.00;102259.88;4895635;29;20033;-71
2023/09/24 01:44:06;;;;;;;17.70;6.32;;;;;;;9.82;100.00;102253.56;4895652;29;20107;-71
2023/09/24 01:46:32;;;;;;;17.02;7.00;;;;;;;9.80;100.00;102253.72;4878846;29;20064;-71
2023/09/24 01:48:59;;;;;;;8.70;5.28;;;;;;;9.82;100.00;102248.22;4894282;29;20072;-71
2023/09/24 01:51:24;;;;;;;13.07;5.80;;;;;;;9.80;100.00;102260.88;4894317;29;20506;-71
2023/09/24 01:53:49;;;;;;;11.10;6.07;;;;;;;9.75;100.00;102255.19;4895526;29;20037;-72
2023/09/24 01:56:18;;;;;;;9.95;5.47;;;;;;;9.74;100.00;102257.00;4878512;29;20068;-72
2023/09/24 01:58:43;;;;;;;14.40;5.78;;;;;;;9.71;100.00;102256.47;4878529;29;20392;-71
2023/09/24 02:01:09;;;;;;;13.32;5.55;;;;;;;9.74;100.00;102257.00;4895218;29;20028;-71
2023/09/24 02:03:35;;;;;;;13.48;5.82;;;;;;;9.70;100.00;102250.31;4895371;29;20104;-72
2023/09/24 02:06:01;;;;;;;11.27;5.78;;;;;;;9.68;100.00;102243.47;4895517;29;20570;-71
2023/09/24 02:08:26;;;;;;;11.60;6.15;;;;;;;9.72;100.00;102252.81;4893923;29;20396;-71
2023/09/24 02:10:52;;;;;;;12.95;6.57;;;;;;;9.61;100.00;102235.25;4895105;29;20043;-71
2023/09/24 02:13:20;;;;;;;11.20;6.05;;;;;;;9.68;100.00;102254.97;4894928;29;20056;-71
2023/09/24 02:15:46;;;;;;;10.25;5.30;;;;;;;9.62;100.00;102245.78;4895099;29;20128;-72
2023/09/24 02:18:12;;;;;;;10.20;5.75;;;;;;;9.62;100.00;102258.25;4894990;29;20111;-71
2023/09/24 02:20:41;;;;;;;15.07;6.30;;;;;;;9.58;100.00;102259.56;4894900;29;20124;-71
2023/09/24 02:23:07;;;;;;;13.88;6.70;;;;;;;9.60;100.00;102274.38;4894852;29;20084;-71
2023/09/24 02:25:35;;;;;;;9.48;6.03;;;;;;;9.57;100.00;102268.56;4894842;29;20468;-71
2023/09/24 02:28:00;;;;;;;13.10;6.10;;;;;;;9.60;100.00;102279.72;4893347;29;20404;-71
2023/09/24 02:30:28;;;;;;;10.10;5.03;;;;;;;9.57;100.00;102277.38;4894828;29;20036;-71
2023/09/24 02:32:53;;;;;;;15.00;6.55;;;;;;;9.53;100.00;102269.84;4894889;29;20116;-71
2023/09/24 02:35:19;;;;;;;15.55;6.57;;;;;;;9.56;100.00;102282.84;4877962;29;20028;-71
2023/09/24 02:37:48;;;;;;;13.80;6.05;;;;;;;9.56;100.00;102286.38;4894571;29;20396;-71
2023/09/24 02:40:26;;;;;;;15.35;5.80;;;;;;;9.53;100.00;102281.31;4892829;29;20119;-71
2023/09/24 02:42:53;;;;;;;11.07;6.05;;;;;;;9.51;100.00;102283.31;4894605;29;20040;-71
2023/09/24 02:45:19;;;;;;;12.38;6.65;;;;;;;9.53;100.00;102283.97;4894539;29;20036;-71
2023/09/24 02:47:47;;;;;;;11.10;5.75;;;;;;;9.53;100.00;102283.16;4894418;29;20040;-71
2023/09/24 02:50:13;;;;;;;12.95;5.78;;;;;;;9.50;100.00;102283.47;4894612;29;20231;-71
2023/09/24 02:52:43;;;;;;;9.32;5.35;;;;;;;9.48;100.00;102288.94;4894508;29;20131;-71
2023/09/24 02:55:16;;;;;;;11.82;6.00;;;;;;;9.49;100.00;102285.31;4894666;29;20028;-71
2023/09/24 02:57:44;;;;;;;12.00;6.05;;;;;;;9.50;100.00;102286.13;4894357;29;20036;-71
2023/09/24 03:00:15;;;;;;;11.68;6.20;;;;;;;9.48;100.00;102280.94;4892946;29;20465;-71
2023/09/24 03:02:41;;;;;;;13.75;6.07;;;;;;;9.44;100.00;102275.09;4894430;29;20119;-71
2023/09/24 03:05:12;;;;;;;12.20;6.00;;;;;;;9.45;100.00;102275.94;4894235;29;20167;-71
2023/09/24 03:07:40;;;;;;;11.43;6.33;;;;;;;9.46;100.00;102287.41;4894136;29;20033;-71
2023/09/24 03:10:07;;;;;;;9.32;5.90;;;;;;;9.42;100.00;102287.72;4892874;29;20041;-71
2023/09/24 03:12:34;;;;;;;11.35;6.25;;;;;;;9.38;100.00;102285.53;4894031;29;20531;-71
2023/09/24 03:15:01;;;;;;;10.68;5.53;;;;;;;9.33;100.00;102290.50;4893952;29;20519;-72
2023/09/24 03:17:26;;;;;;;11.48;6.15;;;;;;;9.34;100.00;102300.97;4894177;29;20099;-71
2023/09/24 03:19:52;;;;;;;11.68;5.72;;;;;;;9.32;100.00;102294.97;4893975;29;20032;-71
2023/09/24 03:22:17;;;;;;;11.40;6.45;;;;;;;9.26;100.00;102290.25;4894091;29;20033;-71
2023/09/24 03:24:42;;;;;;;12.30;6.18;;;;;;;9.28;100.00;102298.09;4894176;29;20119;-71
2023/09/24 03:27:08;;;;;;;13.15;6.22;;;;;;;9.31;100.00;102303.94;4893868;29;20060;-71
2023/09/24 03:29:34;;;;;;;10.82;5.85;;;;;;;9.30;100.00;102294.31;4893921;29;20037;-71
2023/09/24 03:31:59;;;;;;;13.38;6.80;;;;;;;9.27;100.00;102299.91;4893884;29;20033;-71
2023/09/24 03:34:24;;;;;;;13.48;5.93;;;;;;;9.23;100.00;102300.38;4893998;29;20040;-72
2023/09/24 03:36:50;;;;;;;10.45;6.50;;;;;;;9.23;100.00;102311.03;4893759;29;20506;-72
2023/09/24 03:39:15;;;;;;;13.15;6.10;;;;;;;9.21;100.00;102313.81;4893892;29;20037;-71
2023/09/24 03:41:40;;;;;;;11.70;5.75;;;;;;;9.14;100.00;102307.44;4893445;29;20028;-71
2023/09/24 03:44:06;;;;;;;10.80;5.60;;;;;;;9.17;100.00;102315.97;4878092;29;20032;-72
2023/09/24 03:46:31;;;;;;;13.50;5.72;;;;;;;9.13;100.00;102311.09;4893840;29;20400;-71
2023/09/24 03:48:56;;;;;;;19.73;6.38;;;;;;;9.16;100.00;102319.59;4894233;29;20103;-71
2023/09/24 03:51:22;;;;;;;10.75;6.18;;;;;;;9.09;100.00;102323.00;4893917;29;20044;-72
2023/09/24 03:53:47;;;;;;;10.52;5.22;;;;;;;9.02;100.00;102312.16;4897590;29;20040;-71
2023/09/24 03:56:13;;;;;;;10.80;5.60;;;;;;;9.01;100.00;102323.75;4897498;29;20036;-71
2023/09/24 03:58:38;;;;;;;11.05;5.93;;;;;;;8.97;100.00;102323.22;4897507;29;20056;-71
2023/09/24 04:01:10;;;;;;;13.23;6.13;;;;;;;8.94;100.00;102325.38;4895764;29;20036;-71
2023/09/24 04:03:36;;;;;;;;;;;;;;;8.97;100.00;102323.22;4897844;29;20080;-71
2023/09/24 04:06:07;;;;;;;12.15;5.85;;;;;;;8.96;100.00;102326.91;4880390;29;19911;-72
2023/09/24 04:08:32;;;;;;;14.27;6.18;;;;;;;8.94;100.00;102334.19;4880552;29;20107;-71
2023/09/24 04:10:59;;;;;;;12.98;5.55;;;;;;;8.88;100.00;102332.13;4897117;29;20117;-71
2023/09/24 04:13:25;;;;;;;12.73;5.88;;;;;;;8.88;100.00;102331.25;4897297;29;20136;-71
2023/09/24 04:15:52;;;;;;;11.43;5.63;;;;;;;8.86;100.00;102336.75;4895795;29;20139;-72
2023/09/24 04:18:17;;;;;;;10.45;6.15;;;;;;;8.83;100.00;102339.72;4897284;29;20036;-71
2023/09/24 04:20:43;;;;;;;10.90;5.40;;;;;;;8.83;100.00;102338.84;4897112;29;20096;-71
2023/09/24 04:23:11;;;;;;;11.00;5.57;;;;;;;8.78;100.00;102344.66;4897201;29;20496;-72
2023/09/24 04:25:37;;;;;;;11.90;5.70;;;;;;;8.76;100.00;102347.44;4895852;29;20392;-71
2023/09/24 04:28:03;;;;;;;10.82;5.05;;;;;;;8.73;100.00;102347.75;4896997;29;20032;-71
2023/09/24 04:30:28;;;;;;;9.93;5.32;;;;;;;8.75;100.00;102348.44;4896776;29;20119;-72
2023/09/24 04:32:54;;;;;;;11.25;5.75;;;;;;;8.70;100.00;102344.53;4880247;29;20036;-71
2023/09/24 04:35:23;;;;;;;10.32;5.72;;;;;;;8.66;100.00;102340.50;4896895;29;20081;-71
2023/09/24 04:37:50;;;;;;;11.55;6.20;;;;;;;8.70;100.00;102342.72;4896794;29;20556;-72
2023/09/24 04:40:15;;;;;;;9.23;5.65;;;;;;;8.66;100.00;102335.19;4895437;29;20048;-71
2023/09/24 04:42:42;;;;;;;13.35;5.80;;;;;;;8.69;100.00;102342.84;4895337;29;20041;-72
2023/09/24 04:45:12;;;;;;;9.73;5.63;;;;;;;8.71;100.00;102348.88;4879542;29;20043;-72
2023/09/24 04:47:38;;;;;;;14.00;5.55;;;;;;;8.70;100.00;102349.88;4896636;29;20029;-72
2023/09/24 04:50:05;;;;;;;10.10;5.00;;;;;;;8.67;100.00;102347.47;4896611;29;20041;-71
2023/09/24 04:52:30;;;;;;;10.85;5.22;;;;;;;8.65;100.00;102355.63;4896676;29;20042;-72
2023/09/24 04:54:55;;;;;;;8.40;5.13;;;;;;;8.62;100.00;102357.72;4896443;29;20127;-71
2023/09/24 04:57:21;;;;;;;8.05;5.07;;;;;;;8.62;100.00;102353.25;4896879;29;20091;-71
2023/09/24 04:59:47;;;;;;;8.45;4.65;;;;;;;8.62;100.00;102345.28;4896432;29;20496;-72
2023/09/24 05:02:12;;;;;;;10.20;4.93;;;;;;;8.60;100.00;102352.56;4896268;29;20041;-71
2023/09/24 05:04:37;;;;;;;11.80;5.30;;;;;;;8.59;100.00;102348.22;4896623;29;20029;-71
2023/09/24 05:07:03;;;;;;;9.85;5.22;;;;;;;8.60;100.00;102346.41;4895185;29;20040;-72
2023/09/24 05:09:28;;;;;;;13.45;5.25;;;;;;;8.60;100.00;102357.88;4896573;29;20065;-71
2023/09/24 05:11:54;;;;;;;9.88;5.53;;;;;;;8.58;100.00;102349.19;4896262;29;20040;-71
2023/09/24 05:14:20;;;;;;;11.10;4.82;;;;;;;8.58;100.00;102353.69;4896497;29;20485;-71
2023/09/24 05:16:46;;;;;;;10.93;5.00;;;;;;;8.57;100.00;102355.53;4896006;29;20105;-71
2023/09/24 05:19:12;;;;;;;9.77;4.55;;;;;;;8.50;100.00;102357.91;4895604;29;20035;-71
2023/09/24 05:21:37;;;;;;;10.07;5.18;;;;;;;8.51;100.00;102358.75;4895291;29;20036;-72
2023/09/24 05:24:03;;;;;;;11.63;5.53;;;;;;;8.54;100.00;102366.41;4878754;29;20107;-71
2023/09/24 05:26:29;;;;;;;12.05;5.28;;;;;;;8.50;100.00;102362.41;4896077;29;20049;-71
2023/09/24 05:28:54;;;;;;;9.43;4.90;;;;;;;8.48;100.00;102375.00;4895231;29;20067;-71
2023/09/24 05:31:20;;;;;;;11.00;4.65;;;;;;;8.44;100.00;102374.44;4895532;29;20040;-71
2023/09/24 05:33:47;;;;;;;11.27;4.88;;;;;;;8.45;100.00;102376.13;4894938;29;20036;-71
2023/09/24 05:36:12;;;;;;;10.07;4.93;;;;;;;8.46;100.00;102377.81;4896152;29;20400;-73
2023/09/24 05:38:38;;;;;;;30.35;6.68;;;;;;;8.46;100.00;102377.81;4895714;29;20105;-71
2023/09/24 05:41:05;;;;;;;13.30;5.03;;;;;;;8.48;100.00;102382.97;4894625;29;20384;-72
2023/09/24 05:43:30;;;;;;;9.40;5.00;;;;;;;8.49;100.00;102395.31;4895298;29;20068;-71
2023/09/24 05:45:56;;;;;;;10.73;5.50;;;;;;;8.49;100.00;102384.66;4895558;29;20568;-71
2023/09/24 05:48:21;;;;;;;8.00;5.00;;;;;;;8.50;100.00;102391.66;4878903;29;20036;-71
2023/09/24 05:50:47;;;;;;;12.60;5.15;;;;;;;8.51;100.00;102396.84;4878846;29;20093;-71
2023/09/24 05:53:14;;;;;;;12.77;5.45;;;;;;;8.52;100.00;102400.31;4895477;29;20044;-71
2023/09/24 05:55:40;;;;;;;9.88;4.65;;;;;;;8.54;100.00;102401.84;4895337;29;20040;-71
2023/09/24 05:58:06;;;;;;;11.27;5.00;;;;;;;8.55;100.00;102406.19;4895352;29;20116;-72
2023/09/24 06:00:34;;;;;;;7.25;4.53;;;;;;;8.59;100.00;102404.06;4895552;29;20433;-72
2023/09/24 06:03:00;;;;;;;8.23;4.63;;;;;;;8.56;100.00;102391.88;4895725;29;20510;-72
2023/09/24 06:05:25;;;;;;;11.52;4.75;;;;;;;8.66;100.00;102399.84;4895927;29;20056;-72
2023/09/24 06:07:51;;;;;;;9.63;4.40;;;;;;;8.69;100.00;102410.19;4895955;29;20120;-72
2023/09/24 06:10:16;;;;;;;9.13;5.03;;;;;;;8.75;100.00;102400.78;4895113;29;20409;-71
2023/09/24 06:12:41;;;;;;;9.45;5.68;;;;;;;8.71;100.00;102394.91;4895143;29;20505;-71
2023/09/24 06:15:10;;;;;;;9.93;4.75;;;;;;;8.78;100.00;102409.31;4893296;29;20040;-72
2023/09/24 06:17:36;;;;;;;10.20;5.32;;;;;;;8.89;100.00;102412.78;4895303;29;20551;-72
2023/09/24 06:20:01;;;;;;;7.70;4.75;;;;;;;8.93;100.00;102412.34;4895188;29;20029;-72
2023/09/24 06:22:27;;;;;;;11.10;4.72;;;;;;;8.91;100.00;102406.31;4895077;29;20115;-72
2023/09/24 06:24:53;;;;;;;8.95;4.70;;;;;;;9.02;100.00;102428.41;4895080;29;20040;-72
2023/09/24 06:27:21;;;;;;;8.60;4.55;;;;;;;9.07;100.00;102418.16;4894722;29;20045;-71
2023/09/24 06:29:46;;;;;;;12.23;6.07;;;;;;;9.11;100.00;102420.34;4894876;29;20472;-71
2023/09/24 06:32:12;;;;;;;9.68;4.50;;;;;;;9.16;100.00;102428.72;4894689;29;20036;-72
2023/09/24 06:34:38;;;;;;;15.60;6.28;;;;;;;9.21;100.00;102428.28;4878269;29;20025;-72
2023/09/24 06:37:03;;;;;;;10.88;4.78;;;;;;;9.26;100.00;102434.00;4893569;29;20033;-71
2023/09/24 06:39:29;;;;;;;9.25;4.43;;;;;;;9.31;100.00;102433.56;4894902;29;20040;-71
2023/09/24 06:41:55;;;;;;;9.57;4.93;;;;;;;9.34;100.00;102435.94;4894759;29;20051;-71
2023/09/24 06:44:22;;;;;;;14.52;6.55;;;;;;;9.34;100.00;102433.28;4894733;29;20033;-72
2023/09/24 06:46:49;;;;;;;9.02;4.90;;;;;;;9.39;100.00;102437.16;4894879;29;20028;-71
2023/09/24 06:49:14;;;;;;;11.27;6.15;;;;;;;9.43;100.00;102440.34;4893396;29;20499;-71
2023/09/24 06:51:40;;;;;;;12.90;4.85;;;;;;;9.48;100.00;102437.25;4893011;29;20131;-72
2023/09/24 06:54:05;;;;;;;9.75;4.90;;;;;;;9.51;100.00;102440.47;4877464;29;20063;-72
2023/09/24 06:56:31;;;;;;;10.55;3.92;;;;;;;9.56;100.00;102443.50;4894276;29;20044;-72
2023/09/24 06:58:56;;;;;;;10.82;4.25;;;;;;;9.58;100.00;102432.69;4894753;29;20103;-72
2023/09/24 07:01:22;;;;;;;13.52;5.10;;;;;;;9.62;100.00;102448.22;4877618;29;20037;-73
2023/09/24 07:03:48;;;;;;;8.63;4.53;;;;;;;9.66;100.00;102451.41;4877660;29;20337;-72
2023/09/24 07:06:15;;;;;;;9.07;4.35;;;;;;;9.69;100.00;102448.44;4893278;29;20040;-72
2023/09/24 07:08:40;;;;;;;9.80;5.07;;;;;;;9.70;100.00;102439.47;4892249;29;20028;-72
2023/09/24 07:11:23;;;;;;;8.80;4.40;;;;;;;9.77;100.00;102451.22;4876743;29;20384;-72
2023/09/24 07:13:48;;;;;;;10.60;5.18;;;;;;;9.80;100.00;102448.25;4893337;29;20064;-71
2023/09/24 07:16:13;;;;;;;15.75;5.07;;;;;;;9.85;100.00;102455.75;4893510;29;20051;-72
2023/09/24 07:18:39;;;;;;;13.93;4.32;;;;;;;9.81;100.00;102430.41;4893944;29;20119;-72
2023/09/24 07:21:05;;;;;;;12.00;5.32;;;;;;;9.95;100.00;102437.03;4894102;29;20036;-72
2023/09/24 07:23:30;;;;;;;10.40;4.82;;;;;;;10.04;100.00;102447.63;4895091;29;20027;-72
2023/09/24 07:25:56;;;;;;;13.52;5.13;;;;;;;10.23;100.00;102456.44;4893768;29;20036;-72
2023/09/24 07:28:24;;;;;;;10.60;5.43;;;;;;;10.31;100.00;102456.53;4892455;29;20050;-72
2023/09/24 07:30:51;;;;;;;10.32;4.43;;;;;;;10.33;100.00;102453.72;4893995;29;20028;-72
2023/09/24 07:33:16;;;;;;;11.80;4.90;;;;;;;10.46;100.00;102460.31;4893830;29;20077;-72
2023/09/24 07:35:41;;;;;;;11.95;5.63;;;;;;;10.59;100.00;102467.91;4877323;29;20064;-72
2023/09/24 07:38:07;;;;;;;8.88;4.63;;;;;;;10.64;100.00;102462.94;4894166;29;20048;-73
2023/09/24 07:40:32;;;;;;;11.95;4.82;;;;;;;10.77;100.00;102475.84;4877284;29;20041;-72
2023/09/24 07:42:57;;;;;;;13.93;6.72;;;;;;;10.84;100.00;102478.72;4893961;29;20037;-72
2023/09/24 07:45:23;;;;;;;9.35;5.13;;;;;;;10.98;100.00;102478.13;4876982;29;20071;-72
2023/09/24 07:47:48;;;;;;;12.90;4.85;;;;;;;11.09;100.00;102475.19;4876758;29;20024;-73
2023/09/24 07:50:14;;;;;;;14.77;5.47;;;;;;;11.21;100.00;102482.88;4893670;29;20127;-72
2023/09/24 07:52:39;;;;;;;9.55;4.68;;;;;;;11.30;100.00;102477.44;4893497;29;20028;-73
2023/09/24 07:55:06;;;;;;;18.55;6.85;;;;;;;11.51;100.00;102490.34;4876962;29;20052;-72
2023/09/24 07:57:31;;;;;;;12.75;5.32;;;;;;;11.62;100.00;102478.53;4894418;29;20091;-73
2023/09/24 07:59:57;;;;;;;10.73;5.30;;;;;;;11.77;100.00;102478.72;4893882;29;20032;-73
2023/09/24 08:02:22;;;;;;;13.65;6.05;;;;;;;11.87;100.00;102487.47;4894182;29;20047;-73
2023/09/24 08:04:48;;;;;;;10.40;4.80;;;;;;;12.02;100.00;102491.16;4893877;29;20028;-73
2023/09/24 08:07:13;;;;;;;8.50;5.43;;;;;;;12.17;100.00;102488.66;4894097;29;20832;-73
2023/09/24 08:09:40;;;;;;;11.82;4.60;;;;;;;12.28;100.00;102488.31;4893836;29;20043;-73
2023/09/24 08:12:06;;;;;;;11.35;5.20;;;;;;;12.36;100.00;102479.44;4892781;29;20043;-73
2023/09/24 08:14:32;;;;;;;8.48;4.43;;;;;;;12.52;100.00;102486.63;4893935;29;20045;-73
2023/09/24 08:16:57;;;;;;;10.43;4.65;;;;;;;12.63;100.00;102488.13;4893742;29;20025;-73
2023/09/24 08:19:22;;;;;;;10.48;4.75;;;;;;;12.74;100.00;102486.94;4893817;29;20500;-72
2023/09/24 08:21:48;;;;;;;12.50;4.70;;;;;;;12.86;100.00;102485.56;4893260;29;20052;-71
2023/09/24 08:24:14;;;;;;;12.50;4.47;;;;;;;12.98;100.00;102486.03;4892207;29;20507;-71
2023/09/24 08:26:39;;;;;;;9.15;4.38;;;;;;;13.11;100.00;102492.50;4876665;29;20033;-71
2023/09/24 08:29:06;;;;;;;11.23;5.35;;;;;;;13.22;100.00;102490.47;4891997;29;20481;-71
2023/09/24 08:31:32;;;;;;;12.77;4.18;;;;;;;13.31;100.00;102498.34;4893240;29;20047;-71
2023/09/24 08:33:58;;;;;;;9.27;5.13;;;;;;;13.43;100.00;102492.59;4876400;29;20400;-71
2023/09/24 08:36:23;;;;;;;12.77;5.55;;;;;;;13.52;100.00;102492.38;4893197;29;20028;-71
2023/09/24 08:38:49;;;;;;;11.43;4.43;;;;;;;13.63;100.00;102496.50;4894823;29;20039;-71
2023/09/24 08:41:14;;;;;;;10.77;4.00;;;;;;;13.74;100.00;102495.25;4895482;29;20111;-71
2023/09/24 08:43:43;;;;;;;10.73;3.83;;;;;;;13.87;100.00;102495.50;4896024;29;20112;-71
2023/09/24 08:46:10;;;;;;;9.45;5.07;;;;;;;14.00;100.00;102494.91;4896509;29;20036;-71
2023/09/24 08:48:36;;;;;;;17.92;10.57;;;;;;;14.13;100.00;102507.75;4895953;29;20119;-71
2023/09/24 08:51:02;;;;;;;8.88;4.05;;;;;;;14.19;100.00;102498.97;4895955;29;20044;-71
2023/09/24 08:53:30;;;;;;;7.40;3.55;;;;;;;14.37;100.00;102507.53;4894831;29;20047;-71
2023/09/24 08:55:55;;;;;;;12.55;4.13;;;;;;;14.51;100.00;102502.38;4896102;29;20471;-71
2023/09/24 08:58:21;;;;;;;6.18;3.15;;;;;;;14.58;100.00;102495.31;4895885;29;20037;-71
2023/09/24 09:00:46;;;;;;;8.88;3.58;;;;;;;14.71;100.00;102513.47;4894812;29;20033;-71
2023/09/24 09:03:11;;;;;;;7.65;3.63;;;;;;;14.80;100.00;102507.84;4896401;29;20046;-71
2023/09/24 09:05:38;;;;;;;6.53;3.15;;;;;;;14.90;100.00;102512.94;4896699;29;20028;-71
2023/09/24 09:08:04;;;;;;;8.55;3.78;;;;;;;14.97;100.00;102505.81;4896503;29;20058;-71
2023/09/24 09:10:33;;;;;;;9.68;3.30;;;;;;;15.10;100.00;102508.66;4896455;29;20032;-71
2023/09/24 09:13:19;;;;;;;12.82;3.33;;;;;;;15.26;100.00;102507.63;4896291;29;20501;-71
2023/09/24 09:15:46;;;;;;;4.78;2.35;;;;;;;15.38;100.00;102501.78;4896574;29;20495;-71
2023/09/24 09:18:26;;;;;;;5.32;2.67;;;;;;;15.44;100.00;102507.25;4896289;29;20020;-72
2023/09/24 09:20:59;;;;;;;6.28;2.15;;;;;;;15.51;100.00;102505.47;4896412;29;20029;-72
2023/09/24 09:23:32;;;;;;;11.10;3.30;;;;;;;15.62;100.00;102493.41;4896507;29;20036;-72
2023/09/24 09:25:58;;;;;;;14.00;3.65;;;;;;;15.77;100.00;102493.38;4893256;29;20051;-72
2023/09/24 09:28:26;;;;;;;3.10;2.70;;;;;;;15.83;100.00;102500.69;4888314;29;20028;-70
2023/09/24 09:30:58;;;;;;;7.55;2.58;;;;;;;15.97;100.00;102475.56;4888600;29;20033;-70
2023/09/24 09:33:27;;;;;;;5.78;2.13;;;;;;;16.07;100.00;102477.94;4887341;29;20024;-70
2023/09/24 09:35:54;;;;;;;2.92;1.92;;;;;;;16.18;100.00;102477.41;4888526;29;20040;-70
2023/09/24 09:38:20;;;;;;;3.70;1.95;;;;;;;16.25;100.00;102479.34;4888266;29;20028;-73
2023/09/24 09:40:47;;;;;;;2.95;1.52;;;;;;;16.31;100.00;102478.56;4888582;29;20040;-72
2023/09/24 09:43:15;;;;;;;4.45;1.27;;;;;;;16.42;100.00;102467.25;4888886;29;20056;-73
2023/09/24 09:45:44;;;;;;;4.68;1.33;;;;;;;16.51;100.00;102460.69;4888938;29;20104;-67
2023/09/24 09:48:11;;;;;;;6.20;2.60;;;;;;;16.57;100.00;102451.00;4871120;29;20481;-71
2023/09/24 09:50:43;;;;;;;5.03;1.65;;;;;;;16.70;100.00;102461.03;4887385;29;20762;-72
2023/09/24 09:53:09;;;;;;;;;;;;;;;16.80;100.00;102446.19;4888405;29;20033;-70
2023/09/24 09:55:42;;;;;;;3.50;1.48;;;;;;;16.88;100.00;102449.75;4888087;29;20011;-71
2023/09/24 09:58:10;;;;;;;5.82;1.60;;;;;;;16.94;100.00;102449.78;4887990;29;20029;-73
2023/09/24 10:00:36;;;;;;;5.30;2.80;;;;;;;16.97;100.00;102448.53;4888441;29;20032;-70
2023/09/24 10:03:02;;;;;;;5.05;1.60;;;;;;;16.81;100.00;102447.00;4871708;29;20043;-73
2023/09/24 10:05:29;;;;;;;7.68;2.00;;;;;;;16.54;99.40;102433.34;4887847;29;20444;-70
2023/09/24 10:07:54;;;;;;;4.47;2.20;;;;;;;16.46;100.00;102438.91;4887134;29;20498;-71
2023/09/24 10:10:32;;;;;;;4.82;1.88;;;;;;;16.48;100.00;102431.47;4887903;29;20028;-71
2023/09/24 10:12:59;;;;;;;3.47;1.48;;;;;;;16.51;98.90;102430.25;4887931;29;20393;-71
2023/09/24 10:15:29;;;;;;;5.45;2.28;;;;;;;16.58;99.80;102426.56;4888226;29;20032;-70
2023/09/24 10:18:07;;;;;;;3.75;1.98;;;;;;;16.62;99.12;102433.19;4887480;29;20032;-71
2023/09/24 10:20:59;;;;;;;3.95;1.70;;;;;;;16.63;99.79;102432.16;4887885;29;20419;-70
2023/09/24 10:23:31;;;;;;;4.13;1.52;;;;;;;16.70;97.38;102428.69;4885547;29;20040;-71
2023/09/24 10:26:02;;;;;;;7.43;2.33;;;;;;;16.76;97.91;102438.66;4887669;29;20476;-71
2023/09/24 10:28:46;;;;;;;3.25;1.48;;;;;;;16.98;96.62;102426.78;4887612;29;20028;-71
2023/09/24 10:31:12;;;;;;;5.30;1.92;;;;;;;17.18;96.50;102417.94;4887568;29;20787;-71
2023/09/24 10:33:53;;;;;;;5.80;2.38;;;;;;;17.40;95.97;102415.94;4887702;29;20039;-71
2023/09/24 10:36:29;;;;;;;3.83;1.48;;;;;;;17.53;94.34;102414.09;4886950;29;20056;-69
2023/09/24 10:39:07;;;;;;;6.18;1.33;;;;;;;17.65;93.27;102417.00;4887358;29;20032;-68
2023/09/24 10:41:34;;;;;;;3.05;1.13;;;;;;;17.73;91.44;102416.81;4887570;29;20067;-73
2023/09/24 10:44:25;;;;;;;3.78;1.45;;;;;;;17.82;89.95;102424.78;4892015;29;20024;-72
2023/09/24 10:46:51;;;;;;;4.43;1.45;;;;;;;17.82;88.25;102422.91;4894992;29;20080;-72
2023/09/24 10:49:21;;;;;;;8.27;1.70;;;;;;;17.78;85.95;102404.59;4877928;29;20396;-72
2023/09/24 10:52:00;;;;;;;6.60;1.60;;;;;;;17.89;91.73;102412.94;4878212;29;20544;-72
2023/09/24 10:54:25;;;;;;;4.97;1.48;;;;;;;17.94;83.27;102409.59;4895765;29;20032;-72
2023/09/24 10:56:51;;;;;;;2.88;1.42;;;;;;;17.98;85.38;102408.16;4895408;29;20040;-73
2023/09/24 10:59:30;;;;;;;6.50;1.52;;;;;;;18.02;81.51;102406.69;4878145;29;20029;-72
2023/09/24 11:01:55;;;;;;;2.90;1.52;;;;;;;18.05;83.70;102408.16;4894650;29;20048;-73
2023/09/24 11:04:25;;;;;;;3.42;1.40;;;;;;;18.11;83.62;102410.03;4893746;29;20033;-73
2023/09/24 11:06:51;;;;;;;3.40;1.70;;;;;;;18.16;84.37;102412.94;4894207;29;20040;-73
2023/09/24 11:09:21;;;;;;;16.23;7.63;;;;;;;18.26;86.36;102407.09;4893111;29;20046;-72
2023/09/24 11:11:47;;;;;;;3.90;2.40;;;;;;;18.34;83.25;102407.72;4893791;29;20036;-75
2023/09/24 11:14:22;;;;;;;4.63;1.50;;;;;;;18.44;81.25;102414.53;4893805;29;20060;-70
2023/09/24 11:16:48;;;;;;;3.03;1.50;;;;;;;18.44;79.37;102404.56;4892897;29;20373;-70
2023/09/24 11:19:13;;;;;;;4.78;2.05;;;;;;;18.46;79.19;102407.06;4894031;29;20065;-70